createdAt,value
2022-11-05T00:01:44.513Z,3.80
2022-11-05T00:04:31.095Z,3.53
2022-11-05T00:07:17.884Z,4.10
2022-11-05T00:09:46.335Z,4.20
2022-11-05T00:12:32.490Z,4.17
2022-11-05T00:15:18.104Z,4.40
2022-11-05T00:17:47.836Z,3.90
2022-11-05T00:20:16.186Z,3.77
2022-11-05T00:23:02.012Z,3.97
2022-11-05T00:25:31.169Z,3.30
2022-11-05T00:28:02.185Z,3.70
2022-11-05T00:30:30.694Z,3.80
2022-11-05T00:33:03.725Z,4.77
2022-11-05T00:35:31.999Z,4.40
2022-11-05T00:38:00.594Z,4.10
2022-11-05T00:40:28.836Z,4.50
2022-11-05T00:43:14.539Z,4.43
2022-11-05T00:45:42.816Z,4.37
2022-11-05T00:48:29.872Z,3.93
2022-11-05T00:50:58.170Z,4.00
2022-11-05T00:53:26.469Z,4.03
2022-11-05T00:55:54.848Z,4.53
2022-11-05T00:58:23.883Z,4.10
2022-11-05T01:00:52.850Z,4.10
2022-11-05T01:03:23.362Z,4.27
2022-11-05T01:05:54.130Z,4.03
2022-11-05T01:08:23.210Z,4.10
2022-11-05T01:10:52.514Z,4.20
2022-11-05T01:13:21.464Z,4.33
2022-11-05T01:15:50.978Z,4.10
2022-11-05T01:18:19.654Z,4.53
2022-11-05T01:20:49.351Z,4.10
2022-11-05T01:23:17.778Z,4.43
2022-11-05T01:25:46.489Z,4.30
2022-11-05T01:28:14.734Z,4.20
2022-11-05T01:30:43.039Z,4.30
2022-11-05T01:33:11.867Z,4.40
2022-11-05T01:35:40.572Z,4.57
2022-11-05T01:38:10.258Z,4.10
2022-11-05T01:40:38.538Z,3.97
2022-11-05T01:43:10.533Z,4.00
2022-11-05T01:45:39.379Z,4.37
2022-11-05T01:48:08.404Z,4.17
2022-11-05T01:50:42.779Z,4.33
2022-11-05T01:53:17.876Z,4.73
2022-11-05T01:55:49.098Z,3.80
2022-11-05T01:58:20.517Z,3.97
2022-11-05T02:00:49.083Z,3.97
2022-11-05T02:03:17.675Z,4.20
2022-11-05T02:05:45.971Z,4.27
2022-11-05T02:08:19.190Z,3.70
2022-11-05T02:10:47.407Z,4.13
2022-11-05T02:13:15.978Z,3.83
2022-11-05T02:15:50.419Z,3.90
2022-11-05T02:18:22.158Z,4.33
2022-11-05T02:20:54.139Z,4.33
2022-11-05T02:24:06.842Z,3.63
2022-11-05T02:27:22.601Z,3.70
2022-11-05T02:30:37.310Z,3.93
2022-11-05T02:33:29.589Z,4.00
2022-11-05T02:36:13.906Z,4.00
2022-11-05T02:38:44.304Z,3.83
2022-11-05T02:41:17.348Z,3.80
2022-11-05T02:43:49.485Z,3.90
2022-11-05T02:46:26.797Z,4.30
2022-11-05T02:48:59.294Z,3.80
2022-11-05T02:51:31.138Z,4.10
2022-11-05T02:54:01.599Z,3.93
2022-11-05T02:56:31.877Z,3.90
2022-11-05T02:59:00.175Z,3.97
2022-11-05T03:01:29.951Z,4.13
2022-11-05T03:03:58.958Z,3.90
2022-11-05T03:07:01.003Z,4.87
2022-11-05T03:09:46.954Z,4.27
2022-11-05T03:12:22.738Z,4.00
2022-11-05T03:14:54.789Z,3.60
2022-11-05T03:17:28.998Z,4.37
2022-11-05T03:20:01.029Z,4.60
2022-11-05T03:22:31.228Z,4.60
2022-11-05T03:25:01.780Z,4.90
2022-11-05T03:27:31.510Z,5.37
2022-11-05T03:30:00.664Z,5.43
2022-11-05T03:32:31.517Z,4.87
2022-11-05T03:35:02.457Z,5.40
2022-11-05T03:37:36.577Z,5.03
2022-11-05T03:40:05.405Z,5.40
2022-11-05T03:42:34.729Z,4.50
2022-11-05T03:45:04.634Z,4.70
2022-11-05T03:47:39.442Z,4.70
2022-11-05T03:50:11.885Z,4.30
2022-11-05T03:52:43.409Z,4.50
2022-11-05T03:55:11.694Z,4.10
2022-11-05T03:57:40.688Z,4.93
2022-11-05T04:00:10.148Z,4.53
2022-11-05T04:02:43.074Z,4.77
2022-11-05T04:05:11.390Z,4.47
2022-11-05T04:07:57.046Z,3.93
2022-11-05T04:10:42.746Z,4.63
2022-11-05T04:13:26.852Z,5.53
2022-11-05T04:16:13.872Z,5.00
2022-11-05T04:18:43.616Z,5.30
2022-11-05T04:21:28.923Z,5.13
2022-11-05T04:24:12.914Z,5.07
2022-11-05T04:26:42.228Z,4.97
2022-11-05T04:29:28.365Z,4.90
2022-11-05T04:31:56.634Z,4.83
2022-11-05T04:34:26.333Z,4.60
2022-11-05T04:36:54.557Z,4.50
2022-11-05T04:39:22.847Z,4.77
2022-11-05T04:41:51.095Z,4.83
2022-11-05T04:44:19.685Z,5.30
2022-11-05T04:46:47.961Z,5.33
2022-11-05T04:49:16.260Z,5.17
2022-11-05T04:51:46.096Z,5.20
2022-11-05T04:54:14.416Z,5.57
2022-11-05T04:56:42.974Z,3.83
2022-11-05T04:59:11.318Z,3.67
2022-11-05T05:01:39.805Z,4.37
2022-11-05T05:04:08.256Z,4.37
2022-11-05T05:06:36.503Z,4.20
2022-11-05T05:09:06.262Z,4.40
2022-11-05T05:11:34.781Z,4.67
2022-11-05T05:14:03.038Z,4.63
2022-11-05T05:16:31.325Z,4.17
2022-11-05T05:18:59.584Z,4.80
2022-11-05T05:21:39.377Z,5.93
2022-11-05T05:24:10.013Z,7.57
2022-11-05T05:26:38.407Z,7.10
2022-11-05T05:29:06.879Z,8.80
2022-11-05T05:31:35.253Z,9.20
2022-11-05T05:34:03.591Z,10.67
2022-11-05T05:36:32.235Z,8.20
2022-11-05T05:39:00.519Z,6.13
2022-11-05T05:41:30.204Z,5.10
2022-11-05T05:43:58.457Z,7.90
2022-11-05T05:46:26.753Z,7.10
2022-11-05T05:48:54.997Z,6.40
2022-11-05T05:51:23.604Z,6.73
2022-11-05T05:53:53.786Z,7.60
2022-11-05T05:56:22.095Z,7.87
2022-11-05T05:58:52.339Z,7.33
2022-11-05T06:01:20.601Z,10.50
2022-11-05T06:03:49.012Z,12.07
2022-11-05T06:06:19.780Z,12.33
2022-11-05T06:08:48.196Z,12.50
2022-11-05T06:11:16.490Z,13.60
2022-11-05T06:13:44.812Z,12.77
2022-11-05T06:16:14.462Z,14.97
2022-11-05T06:18:43.256Z,13.43
2022-11-05T06:21:12.296Z,13.37
2022-11-05T06:23:41.590Z,13.67
2022-11-05T06:26:12.211Z,12.73
2022-11-05T06:28:42.059Z,13.67
2022-11-05T06:31:10.496Z,12.43
2022-11-05T06:33:40.485Z,13.70
2022-11-05T06:36:09.694Z,14.80
2022-11-05T06:38:38.110Z,13.70
2022-11-05T06:41:10.219Z,13.17
2022-11-05T06:43:38.925Z,13.00
2022-11-05T06:46:07.223Z,12.27
2022-11-05T06:48:35.843Z,12.43
2022-11-05T06:51:06.265Z,12.73
2022-11-05T06:53:34.862Z,12.33
2022-11-05T06:56:04.016Z,13.33
2022-11-05T06:58:32.322Z,13.87
2022-11-05T07:01:04.099Z,11.77
2022-11-05T07:03:32.478Z,12.30
2022-11-05T07:06:00.970Z,12.20
2022-11-05T07:08:31.852Z,13.07
2022-11-05T07:11:00.145Z,12.23
2022-11-05T07:13:28.404Z,12.83
2022-11-05T07:15:57.043Z,11.37
2022-11-05T07:18:25.300Z,12.57
2022-11-05T07:20:53.526Z,12.33
2022-11-05T07:23:21.803Z,11.70
2022-11-05T07:25:51.576Z,12.63
2022-11-05T07:28:19.894Z,11.97
2022-11-05T07:30:49.385Z,11.33
2022-11-05T07:33:17.809Z,11.23
2022-11-05T07:35:45.996Z,11.50
2022-11-05T07:38:14.310Z,12.23
2022-11-05T07:40:42.604Z,11.83
2022-11-05T07:43:12.804Z,10.67
2022-11-05T07:45:41.204Z,12.30
2022-11-05T07:48:09.526Z,10.80
2022-11-05T07:50:37.999Z,10.77
2022-11-05T07:53:07.223Z,11.43
2022-11-05T07:55:35.535Z,11.83
2022-11-05T07:58:04.163Z,11.60
2022-11-05T08:00:33.977Z,11.57
2022-11-05T08:03:07.920Z,11.00
2022-11-05T08:05:38.448Z,10.73
2022-11-05T08:08:07.185Z,11.13
2022-11-05T08:10:35.878Z,11.40
2022-11-05T08:13:04.142Z,11.33
2022-11-05T08:15:33.777Z,11.90
2022-11-05T08:18:03.212Z,11.67
2022-11-05T08:20:31.452Z,12.60
2022-11-05T08:22:59.702Z,12.03
2022-11-05T08:25:28.407Z,11.87
2022-11-05T08:27:57.091Z,11.77
2022-11-05T08:30:25.452Z,12.67
2022-11-05T08:32:57.586Z,13.17
2022-11-05T08:35:25.960Z,12.33
2022-11-05T08:37:58.212Z,12.90
2022-11-05T08:40:27.063Z,12.50
2022-11-05T08:42:57.539Z,11.97
2022-11-05T08:45:25.971Z,13.03
2022-11-05T08:48:01.444Z,13.67
2022-11-05T08:50:29.979Z,11.33
2022-11-05T08:52:58.259Z,12.43
2022-11-05T08:55:26.600Z,12.73
2022-11-05T08:57:57.387Z,12.20
2022-11-05T09:00:25.814Z,12.13
2022-11-05T09:02:54.107Z,11.93
2022-11-05T09:05:24.194Z,11.63
2022-11-05T09:07:57.870Z,12.20
2022-11-05T09:10:28.947Z,11.00
2022-11-05T09:12:57.437Z,11.60
2022-11-05T09:15:25.777Z,10.33
2022-11-05T09:17:54.510Z,9.83
2022-11-05T09:20:24.569Z,10.17
2022-11-05T09:22:52.876Z,11.37
2022-11-05T09:25:21.191Z,10.10
2022-11-05T09:27:49.404Z,9.83
2022-11-05T09:30:17.703Z,9.60
2022-11-05T09:32:46.232Z,10.50
2022-11-05T09:35:14.450Z,9.50
2022-11-05T09:37:44.131Z,9.53
2022-11-05T09:40:15.516Z,9.03
2022-11-05T09:42:46.182Z,8.77
2022-11-05T09:45:16.324Z,9.80
2022-11-05T09:47:45.588Z,8.47
2022-11-05T09:50:15.959Z,9.57
2022-11-05T09:52:45.750Z,8.60
2022-11-05T09:55:21.163Z,9.63
2022-11-05T09:57:52.813Z,7.90
2022-11-05T10:00:21.503Z,7.70
2022-11-05T10:02:51.449Z,7.80
2022-11-05T10:05:19.831Z,7.03
2022-11-05T10:07:51.762Z,7.17
2022-11-05T10:10:27.939Z,7.27
2022-11-05T10:12:58.148Z,7.37
2022-11-05T10:15:28.877Z,6.20
2022-11-05T10:17:58.851Z,6.37
2022-11-05T10:20:32.724Z,5.77
2022-11-05T10:23:03.354Z,5.90
2022-11-05T10:25:32.846Z,6.53
2022-11-05T10:28:01.458Z,6.13
2022-11-05T10:30:29.772Z,5.13
2022-11-05T10:32:58.971Z,4.63
2022-11-05T10:35:28.332Z,4.20
2022-11-05T10:37:56.742Z,4.10
2022-11-05T10:40:35.135Z,4.80
2022-11-05T10:43:05.328Z,7.93
2022-11-05T10:45:40.363Z,4.73
2022-11-05T10:48:39.401Z,4.43
2022-11-05T10:51:16.600Z,3.60
2022-11-05T10:53:53.244Z,3.00
2022-11-05T10:56:35.192Z,3.33
2022-11-05T10:59:09.386Z,6.57
2022-11-05T11:01:40.380Z,26.60
2022-11-05T11:04:15.213Z,12.13
2022-11-05T11:06:49.887Z,7.13
2022-11-05T11:09:23.994Z,7.37
2022-11-05T11:12:03.667Z,18.90
2022-11-05T11:14:32.413Z,8.83
2022-11-05T11:17:32.878Z,6.77
2022-11-05T11:20:19.997Z,6.67
2022-11-05T11:23:01.574Z,5.70
2022-11-05T11:25:31.749Z,4.67
2022-11-05T11:28:05.179Z,4.00
2022-11-05T11:30:33.917Z,4.33
2022-11-05T11:33:06.704Z,6.20
2022-11-05T11:35:37.735Z,4.30
2022-11-05T11:38:06.197Z,8.70
2022-11-05T11:40:35.847Z,126.13
2022-11-05T11:43:07.168Z,66.90
2022-11-05T11:45:38.294Z,100.50
2022-11-05T11:48:07.427Z,484.50
2022-11-05T11:50:41.079Z,449.03
2022-11-05T11:53:42.416Z,431.37
2022-11-05T11:56:18.202Z,42.07
2022-11-05T11:58:49.700Z,138.30
2022-11-05T12:02:08.105Z,40.23
2022-11-05T12:04:50.417Z,5.30
2022-11-05T12:07:31.913Z,3.23
2022-11-05T12:10:09.360Z,3.77
2022-11-05T12:12:42.261Z,2.90
2022-11-05T12:15:35.082Z,3.00
2022-11-05T12:18:04.238Z,3.07
2022-11-05T12:20:39.812Z,3.63
2022-11-05T12:23:36.098Z,3.63
2022-11-05T12:26:07.626Z,3.20
2022-11-05T12:29:16.700Z,3.50
2022-11-05T12:31:39.250Z,3.03
2022-11-05T12:34:16.763Z,3.80
2022-11-05T12:37:02.417Z,4.17
2022-11-05T12:39:41.560Z,2.73
2022-11-05T12:42:14.069Z,3.60
2022-11-05T12:44:51.741Z,3.97
2022-11-05T12:47:42.200Z,3.50
2022-11-05T12:50:19.320Z,3.10
2022-11-05T12:53:18.879Z,3.27
2022-11-05T12:55:49.543Z,3.13
2022-11-05T12:58:20.912Z,2.50
2022-11-05T13:00:53.791Z,3.17
2022-11-05T13:03:27.655Z,3.10
2022-11-05T13:06:02.953Z,2.80
2022-11-05T13:08:37.629Z,3.10
2022-11-05T13:11:12.052Z,2.50
2022-11-05T13:13:41.318Z,2.67
2022-11-05T13:16:13.890Z,2.30
2022-11-05T13:18:46.314Z,2.57
2022-11-05T13:21:14.593Z,2.90
2022-11-05T13:23:45.245Z,3.00
2022-11-05T13:26:19.708Z,2.50
2022-11-05T13:28:51.092Z,3.00
2022-11-05T13:31:22.185Z,2.77
2022-11-05T13:33:52.491Z,2.67
2022-11-05T13:36:40.422Z,1.97
2022-11-05T13:39:14.727Z,2.20
2022-11-05T13:42:05.977Z,2.00
2022-11-05T13:45:09.883Z,2.00
2022-11-05T13:48:03.264Z,2.07
2022-11-05T13:50:51.001Z,2.40
2022-11-05T13:53:41.065Z,2.10
2022-11-05T13:56:17.700Z,1.77
2022-11-05T13:58:53.769Z,2.37
2022-11-05T14:01:31.458Z,2.30
2022-11-05T14:03:59.901Z,2.20
2022-11-05T14:06:31.112Z,2.13
2022-11-05T14:09:01.937Z,2.20
2022-11-05T14:11:32.064Z,2.00
2022-11-05T14:14:01.096Z,2.30
2022-11-05T14:16:41.488Z,2.20
2022-11-05T14:19:33.868Z,3.40
2022-11-05T14:22:18.779Z,2.10
2022-11-05T14:24:47.541Z,2.20
2022-11-05T14:27:43.774Z,2.30
2022-11-05T14:30:43.579Z,2.53
2022-11-05T14:33:35.249Z,2.50
2022-11-05T14:36:31.167Z,2.67
2022-11-05T14:39:13.295Z,2.03
2022-11-05T14:41:56.865Z,2.30
2022-11-05T14:44:25.396Z,2.57
2022-11-05T14:46:55.625Z,2.47
2022-11-05T14:49:25.481Z,2.20
2022-11-05T14:51:54.368Z,2.60
2022-11-05T14:54:25.286Z,2.70
2022-11-05T14:56:56.495Z,2.73
2022-11-05T14:59:38.788Z,2.47
2022-11-05T15:02:13.134Z,2.33
2022-11-05T15:04:45.543Z,2.57
2022-11-05T15:07:26.071Z,2.53
2022-11-05T15:09:59.442Z,3.67
2022-11-05T15:12:34.121Z,63.93
2022-11-05T15:15:03.152Z,4.20
2022-11-05T15:17:33.222Z,3.33
2022-11-05T15:20:08.761Z,2.80
2022-11-05T15:22:39.013Z,2.20
2022-11-05T15:25:17.133Z,2.87
2022-11-05T15:27:51.587Z,2.67
2022-11-05T15:30:21.136Z,2.73
2022-11-05T15:32:49.392Z,2.73
2022-11-05T15:35:23.587Z,2.40
2022-11-05T15:37:57.278Z,2.53
2022-11-05T15:40:32.470Z,2.10
2022-11-05T15:43:20.176Z,2.17
2022-11-05T15:46:05.714Z,2.40
2022-11-05T15:48:34.583Z,2.87
2022-11-05T15:51:02.838Z,2.37
2022-11-05T15:53:56.156Z,2.47
2022-11-05T15:56:28.067Z,2.60
2022-11-05T15:59:00.115Z,2.67
2022-11-05T16:01:29.284Z,2.43
2022-11-05T16:03:58.688Z,2.63
2022-11-05T16:06:29.794Z,2.83
2022-11-05T16:08:58.180Z,2.63
2022-11-05T16:11:28.190Z,2.40
2022-11-05T16:14:13.948Z,2.83
2022-11-05T16:16:42.192Z,2.93
2022-11-05T16:19:39.598Z,2.60
2022-11-05T16:22:08.739Z,3.03
2022-11-05T16:24:37.427Z,2.87
2022-11-05T16:27:07.210Z,2.50
2022-11-05T16:29:36.108Z,2.73
2022-11-05T16:32:06.007Z,2.70
2022-11-05T16:34:39.369Z,2.30
2022-11-05T16:37:14.004Z,2.87
2022-11-05T16:39:43.059Z,2.77
2022-11-05T16:42:37.681Z,3.33
2022-11-05T16:45:06.627Z,2.80
2022-11-05T16:47:34.859Z,6.00
2022-11-05T16:50:03.442Z,6.83
2022-11-05T16:52:32.021Z,6.97
2022-11-05T16:55:00.502Z,12.40
2022-11-05T16:57:31.746Z,20.37
2022-11-05T17:00:00.545Z,29.57
2022-11-05T17:02:29.127Z,36.00
2022-11-05T17:04:57.874Z,34.83
2022-11-05T17:07:26.361Z,27.90
2022-11-05T17:09:56.037Z,22.00
2022-11-05T17:12:24.297Z,16.50
2022-11-05T17:14:53.981Z,11.90
2022-11-05T17:17:22.598Z,5.53
2022-11-05T17:19:51.440Z,5.93
2022-11-05T17:22:19.701Z,7.73
2022-11-05T17:24:47.994Z,6.30
2022-11-05T17:27:16.556Z,7.17
2022-11-05T17:29:44.776Z,6.50
2022-11-05T17:32:14.509Z,3.73
2022-11-05T17:34:42.785Z,3.53
2022-11-05T17:37:10.996Z,3.57
2022-11-05T17:39:39.292Z,2.73
2022-11-05T17:42:07.557Z,2.83
2022-11-05T17:44:36.108Z,2.40
2022-11-05T17:47:04.691Z,2.13
2022-11-05T17:49:34.405Z,2.53
2022-11-05T17:52:02.942Z,2.47
2022-11-05T17:54:31.188Z,2.70
2022-11-05T17:56:59.442Z,2.90
2022-11-05T17:59:27.990Z,2.90
2022-11-05T18:01:56.354Z,3.83
2022-11-05T18:04:24.737Z,4.83
2022-11-05T18:06:54.407Z,4.10
2022-11-05T18:09:22.692Z,3.20
2022-11-05T18:11:51.275Z,3.03
2022-11-05T18:14:23.850Z,4.07
2022-11-05T18:16:55.198Z,5.07
2022-11-05T18:19:23.774Z,5.47
2022-11-05T18:21:52.053Z,6.87
2022-11-05T18:24:22.066Z,7.13
2022-11-05T18:26:50.419Z,6.73
2022-11-05T18:29:18.691Z,6.60
2022-11-05T18:31:46.953Z,6.30
2022-11-05T18:34:15.215Z,7.33
2022-11-05T18:36:44.674Z,6.37
2022-11-05T18:39:13.229Z,5.33
2022-11-05T18:41:42.973Z,4.07
2022-11-05T18:44:12.597Z,4.47
2022-11-05T18:46:57.682Z,4.07
2022-11-05T18:49:26.925Z,3.17
2022-11-05T18:51:55.580Z,3.17
2022-11-05T18:54:23.790Z,2.30
2022-11-05T18:56:53.469Z,2.60
2022-11-05T18:59:36.306Z,2.80
2022-11-05T19:02:05.762Z,2.57
2022-11-05T19:04:34.427Z,2.60
2022-11-05T19:07:05.208Z,2.50
2022-11-05T19:09:34.115Z,2.47
2022-11-05T19:12:03.924Z,3.00
2022-11-05T19:14:32.166Z,3.77
2022-11-05T19:17:00.702Z,5.00
2022-11-05T19:19:29.449Z,3.10
2022-11-05T19:21:57.933Z,2.80
2022-11-05T19:24:26.251Z,2.83
2022-11-05T19:26:54.538Z,2.37
2022-11-05T19:29:24.205Z,2.60
2022-11-05T19:31:52.737Z,2.60
2022-11-05T19:34:20.951Z,2.40
2022-11-05T19:36:49.210Z,3.00
2022-11-05T19:39:17.553Z,2.13
2022-11-05T19:41:45.792Z,2.13
2022-11-05T19:44:14.013Z,2.10
2022-11-05T19:46:44.018Z,2.20
2022-11-05T19:49:12.266Z,2.60
2022-11-05T19:51:40.679Z,2.77
2022-11-05T19:54:09.006Z,3.53
2022-11-05T19:56:38.500Z,2.90
2022-11-05T19:59:07.136Z,3.20
2022-11-05T20:01:35.668Z,4.03
2022-11-05T20:04:05.893Z,6.50
2022-11-05T20:06:35.595Z,5.67
2022-11-05T20:09:21.092Z,6.30
2022-11-05T20:11:50.348Z,6.23
2022-11-05T20:14:18.934Z,5.57
2022-11-05T20:16:47.370Z,5.67
2022-11-05T20:19:18.617Z,5.13
2022-11-05T20:21:46.884Z,5.23
2022-11-05T20:24:23.295Z,5.20
2022-11-05T20:26:53.208Z,5.47
2022-11-05T20:29:21.552Z,5.60
2022-11-05T20:31:50.517Z,4.97
2022-11-05T20:34:20.308Z,5.40
2022-11-05T20:36:48.635Z,5.40
2022-11-05T20:39:18.294Z,5.97
2022-11-05T20:41:46.546Z,5.50
2022-11-05T20:44:14.786Z,6.07
2022-11-05T20:46:43.066Z,6.03
2022-11-05T20:49:11.337Z,5.73
2022-11-05T20:51:41.587Z,6.00
2022-11-05T20:54:10.896Z,5.63
2022-11-05T20:56:39.430Z,5.77
2022-11-05T20:59:07.665Z,6.40
2022-11-05T21:01:36.144Z,6.23
2022-11-05T21:04:05.105Z,6.13
2022-11-05T21:06:33.831Z,7.03
2022-11-05T21:09:03.810Z,6.47
2022-11-05T21:11:55.265Z,6.37
2022-11-05T21:14:23.506Z,7.47
2022-11-05T21:16:51.818Z,7.30
2022-11-05T21:19:20.122Z,6.43
2022-11-05T21:21:48.501Z,6.87
2022-11-05T21:24:18.378Z,7.23
2022-11-05T21:26:46.681Z,7.00
2022-11-05T21:29:15.093Z,7.33
2022-11-05T21:31:43.964Z,7.10
2022-11-05T21:34:12.235Z,7.00
2022-11-05T21:36:40.746Z,6.73
2022-11-05T21:39:13.239Z,7.07
2022-11-05T21:41:43.789Z,7.27
2022-11-05T21:44:12.048Z,7.67
2022-11-05T21:46:40.319Z,6.97
2022-11-05T21:49:09.424Z,6.97
2022-11-05T21:51:55.034Z,6.80
2022-11-05T21:54:40.802Z,7.60
2022-11-05T21:57:31.524Z,8.27
2022-11-05T22:00:00.637Z,9.53
2022-11-05T22:02:30.057Z,8.27
2022-11-05T22:05:00.103Z,8.20
2022-11-05T22:07:29.576Z,7.80
2022-11-05T22:09:57.939Z,7.93
2022-11-05T22:12:28.712Z,7.17
2022-11-05T22:14:57.155Z,6.67
2022-11-05T22:17:25.967Z,6.80
2022-11-05T22:19:54.378Z,6.90
2022-11-05T22:22:22.862Z,7.17
2022-11-05T22:24:51.181Z,7.20
2022-11-05T22:27:21.521Z,7.80
2022-11-05T22:29:51.453Z,7.63
2022-11-05T22:32:19.858Z,7.93
2022-11-05T22:34:49.282Z,7.70
2022-11-05T22:37:17.609Z,7.77
2022-11-05T22:39:45.855Z,7.73
2022-11-05T22:42:14.167Z,7.27
2022-11-05T22:44:42.826Z,8.23
2022-11-05T22:47:14.114Z,9.10
2022-11-05T22:49:42.447Z,9.10
2022-11-05T22:52:10.685Z,9.03
2022-11-05T22:54:39.560Z,8.93
2022-11-05T22:57:08.743Z,9.17
2022-11-05T22:59:37.368Z,10.33
2022-11-05T23:02:09.833Z,9.60
2022-11-05T23:04:40.023Z,9.43
2022-11-05T23:07:27.968Z,9.77
2022-11-05T23:10:14.075Z,9.53
2022-11-05T23:12:44.568Z,8.60
2022-11-05T23:15:33.615Z,8.77
2022-11-05T23:18:19.158Z,8.13
2022-11-05T23:21:05.981Z,8.63
2022-11-05T23:23:52.221Z,8.50
2022-11-05T23:26:37.999Z,7.97
2022-11-05T23:29:06.349Z,9.07
2022-11-05T23:31:51.909Z,7.60
2022-11-05T23:34:20.202Z,8.07
2022-11-05T23:37:07.309Z,7.67
2022-11-05T23:39:41.177Z,7.50
2022-11-05T23:42:28.455Z,8.57
2022-11-05T23:45:14.752Z,8.10
2022-11-05T23:48:00.837Z,7.10
2022-11-05T23:50:29.094Z,7.30
2022-11-05T23:52:59.068Z,7.43
2022-11-05T23:55:27.338Z,6.63
2022-11-05T23:57:55.647Z,7.03
